Time;durP1;ratioP1;P1;durP2;ratioP2;P2;SDS_P1;SDS_P2;PMS_P1;PMS_P2;Temp;Humidity;BMP_temperature;BMP_pressure;BME280_temperature;BME280_humidity;BME280_pressure;Samples;Min_cycle;Max_cycle;Signal;HPM_P1;HPM_P2
2022/04/19 00:01:43;;;;;;;11.77;2.50;;;9.00;99.90;;;;;;5023127;28;20022;-70
2022/04/19 00:04:09;;;;;;;9.65;1.90;;;9.00;99.90;;;;;;5008032;28;20018;-71
2022/04/19 00:06:36;;;;;;;11.13;2.33;;;9.00;99.90;;;;;;5025546;28;20033;-70
2022/04/19 00:09:03;;;;;;;5.38;2.03;;;8.90;99.90;;;;;;5009445;28;20040;-71
2022/04/19 00:11:28;;;;;;;7.13;2.42;;;9.00;99.90;;;;;;5026390;28;20243;-70
2022/04/19 00:13:54;;;;;;;12.02;1.80;;;8.90;99.90;;;;;;5028585;28;20017;-71
2022/04/19 00:16:19;;;;;;;8.10;1.50;;;8.90;99.90;;;;;;5029082;28;20064;-72
2022/04/19 00:18:45;;;;;;;10.98;1.73;;;8.90;99.90;;;;;;5045081;28;20053;-71
2022/04/19 00:21:11;;;;;;;18.20;1.85;;;8.90;99.90;;;;;;5028640;28;20024;-72
2022/04/19 00:23:37;;;;;;;9.35;1.88;;;8.90;99.90;;;;;;5028984;28;20022;-72
2022/04/19 00:26:03;;;;;;;9.07;1.48;;;8.90;99.90;;;;;;5046700;28;20041;-72
2022/04/19 00:28:29;;;;;;;11.18;2.00;;;8.90;99.90;;;;;;5028546;28;20021;-71
2022/04/19 00:30:55;;;;;;;5.30;1.50;;;8.90;99.90;;;;;;5046664;28;20218;-72
2022/04/19 00:33:20;;;;;;;7.95;1.70;;;8.90;99.90;;;;;;5028613;28;20013;-72
2022/04/19 00:35:46;;;;;;;8.18;1.70;;;8.80;99.90;;;;;;5028376;28;20026;-72
2022/04/19 00:38:12;;;;;;;8.50;1.30;;;8.70;99.90;;;;;;5028660;28;20029;-71
2022/04/19 00:40:38;;;;;;;7.32;2.20;;;8.60;99.90;;;;;;5029258;28;20021;-72
2022/04/19 00:43:04;;;;;;;8.43;2.15;;;8.50;99.90;;;;;;5028736;28;20200;-72
2022/04/19 00:45:33;;;;;;;12.80;1.75;;;8.50;99.90;;;;;;5045684;28;20040;-72
2022/04/19 00:47:59;;;;;;;18.33;2.50;;;8.50;99.90;;;;;;5046253;28;20033;-72
2022/04/19 00:50:25;;;;;;;8.68;1.83;;;8.50;99.90;;;;;;5045264;28;20093;-72
2022/04/19 00:52:51;;;;;;;9.10;1.52;;;8.40;99.90;;;;;;5028720;28;20021;-72
2022/04/19 00:55:17;;;;;;;12.57;2.55;;;8.50;99.90;;;;;;5045087;28;20124;-71
2022/04/19 00:57:45;;;;;;;5.35;1.95;;;8.50;99.90;;;;;;5046119;28;20057;-72
2022/04/19 01:00:12;;;;;;;6.13;2.22;;;8.60;99.90;;;;;;5045125;28;20021;-72
2022/04/19 01:02:38;;;;;;;10.98;2.05;;;8.60;99.90;;;;;;5045103;28;20065;-72
2022/04/19 01:05:06;;;;;;;9.65;2.03;;;8.60;99.90;;;;;;5043132;28;20274;-72
2022/04/19 01:07:32;;;;;;;5.95;1.50;;;8.50;99.90;;;;;;5028167;28;20033;-72
2022/04/19 01:09:59;;;;;;;10.00;2.13;;;8.50;99.90;;;;;;5045031;28;20092;-72
2022/04/19 01:15:12;;;;;;;11.63;2.63;;;8.40;99.90;;;;;;5010771;28;20013;-72
2022/04/19 01:17:39;;;;;;;4.20;2.00;;;8.40;99.90;;;;;;5024862;28;20043;-72
2022/04/19 01:20:07;;;;;;;8.65;2.30;;;8.30;99.90;;;;;;5007719;28;20083;-72
2022/04/19 01:22:35;;;;;;;9.27;2.17;;;8.40;99.90;;;;;;5041730;28;20018;-72
2022/04/19 01:25:00;;;;;;;10.07;2.42;;;8.30;99.90;;;;;;5024506;28;20276;-69
2022/04/19 01:27:26;;;;;;;6.95;2.30;;;8.30;99.90;;;;;;5024792;28;20330;-70
2022/04/19 01:30:00;;;;;;;11.07;2.35;;;8.20;99.90;;;;;;5024533;28;20029;-70
2022/04/19 01:32:27;;;;;;;10.48;2.65;;;8.20;99.90;;;;;;5024335;28;20028;-72
2022/04/19 01:35:07;;;;;;;6.65;2.20;;;8.00;99.90;;;;;;5040143;28;20216;-70
2022/04/19 01:37:35;;;;;;;8.48;2.40;;;7.90;99.90;;;;;;5044377;28;20030;-72
2022/04/19 01:40:17;;;;;;;8.70;2.50;;;7.80;99.90;;;;;;5044418;28;20025;-70
2022/04/19 01:42:58;;;;;;;7.43;2.28;;;7.70;99.90;;;;;;5043878;28;20035;-70
2022/04/19 01:45:26;;;;;;;8.70;2.67;;;7.60;99.90;;;;;;5043729;28;20021;-70
2022/04/19 01:47:54;;;;;;;9.98;3.25;;;7.60;99.90;;;;;;5027341;28;20017;-70
2022/04/19 01:50:21;;;;;;;13.30;2.97;;;7.40;99.90;;;;;;5044955;28;20022;-69
2022/04/19 01:52:49;;;;;;;12.55;3.47;;;7.40;99.90;;;;;;5027508;28;20024;-70
2022/04/19 01:55:17;;;;;;;12.07;3.22;;;7.40;99.90;;;;;;5026944;28;20013;-71
2022/04/19 01:57:45;;;;;;;9.52;3.25;;;7.40;99.90;;;;;;5011037;28;20324;-70
2022/04/19 02:00:12;;;;;;;12.93;3.17;;;7.40;99.90;;;;;;5011095;28;20100;-70
2022/04/19 02:02:39;;;;;;;13.65;3.03;;;7.40;99.90;;;;;;5010995;28;20089;-70
2022/04/19 02:05:06;;;;;;;13.32;3.35;;;7.40;99.90;;;;;;5043541;28;20022;-70
2022/04/19 02:07:32;;;;;;;8.70;2.90;;;7.30;99.90;;;;;;5025221;28;20256;-70
2022/04/19 02:10:00;;;;;;;13.50;3.13;;;7.20;99.90;;;;;;5027042;28;20236;-70
2022/04/19 02:12:26;;;;;;;9.48;2.88;;;7.20;99.90;;;;;;5044819;28;20343;-71
2022/04/19 02:14:52;;;;;;;14.80;3.47;;;7.20;99.90;;;;;;5043434;28;20064;-71
2022/04/19 02:17:19;;;;;;;10.77;3.20;;;7.20;99.90;;;;;;5043245;28;20033;-71
2022/04/19 02:19:47;;;;;;;8.75;2.90;;;7.20;99.90;;;;;;5026218;28;20035;-70
2022/04/19 02:22:13;;;;;;;11.93;3.00;;;7.20;99.90;;;;;;5026866;28;20040;-70
2022/04/19 02:24:38;;;;;;;11.48;2.95;;;7.20;99.90;;;;;;5042373;28;20049;-70
2022/04/19 02:27:05;;;;;;;10.07;2.83;;;7.10;99.90;;;;;;5043388;28;20065;-70
2022/04/19 02:29:32;;;;;;;8.20;2.67;;;7.00;99.90;;;;;;5026759;28;20025;-70
2022/04/19 02:31:58;;;;;;;7.68;2.58;;;6.90;99.90;;;;;;5042991;28;20032;-70
2022/04/19 02:34:23;;;;;;;10.57;2.55;;;6.90;99.90;;;;;;5030343;28;20049;-70
2022/04/19 02:36:52;;;;;;;10.25;2.78;;;6.90;99.90;;;;;;5024500;28;20132;-71
2022/04/19 02:39:19;;;;;;;8.95;2.88;;;6.80;99.90;;;;;;5023188;28;20030;-71
2022/04/19 02:41:45;;;;;;;15.40;2.50;;;6.70;99.90;;;;;;5024326;28;20022;-71
2022/04/19 02:44:10;;;;;;;8.80;2.50;;;6.80;99.90;;;;;;5006813;28;20112;-70
2022/04/19 02:46:36;;;;;;;13.88;3.05;;;6.70;99.90;;;;;;5008755;28;20107;-71
2022/04/19 02:49:04;;;;;;;10.82;2.50;;;6.70;99.90;;;;;;5022471;28;20033;-71
2022/04/19 02:51:32;;;;;;;10.27;2.58;;;6.70;99.90;;;;;;5007327;28;20025;-71
2022/04/19 02:53:58;;;;;;;10.15;2.70;;;6.60;99.90;;;;;;5006658;28;20117;-71
2022/04/19 02:56:24;;;;;;;7.65;2.58;;;6.60;99.90;;;;;;5039285;28;20061;-70
2022/04/19 02:58:50;;;;;;;6.35;2.47;;;6.60;99.90;;;;;;5026531;28;20071;-70
2022/04/19 03:01:15;;;;;;;8.50;2.40;;;6.70;99.90;;;;;;5026249;28;20040;-69
2022/04/19 03:03:43;;;;;;;9.23;2.60;;;6.70;99.90;;;;;;5043026;28;20021;-72
2022/04/19 03:06:09;;;;;;;9.20;2.92;;;6.60;99.90;;;;;;5026459;28;20013;-71
2022/04/19 03:08:35;;;;;;;8.70;2.70;;;6.60;99.90;;;;;;5024722;28;20371;-72
2022/04/19 03:11:02;;;;;;;12.13;2.90;;;6.50;99.90;;;;;;5026156;28;20022;-72
2022/04/19 03:13:28;;;;;;;8.45;2.35;;;6.50;99.90;;;;;;5026080;28;20059;-72
2022/04/19 03:15:54;;;;;;;8.07;2.72;;;6.60;99.90;;;;;;5022480;28;20221;-71
2022/04/19 03:18:21;;;;;;;6.13;2.38;;;6.50;99.90;;;;;;5022411;28;20063;-72
2022/04/19 03:20:47;;;;;;;6.45;2.25;;;6.50;99.90;;;;;;5022616;28;20025;-72
2022/04/19 03:28:45;;;;;;;6.57;2.33;;;6.40;99.90;;;;;;5023165;28;20065;-72
2022/04/19 03:31:12;;;;;;;5.82;2.38;;;6.30;99.90;;;;;;5006196;28;20024;-70
2022/04/19 03:33:39;;;;;;;10.63;2.63;;;6.30;99.90;;;;;;5028270;28;20316;-69
2022/04/19 03:36:08;;;;;;;7.68;2.70;;;6.30;99.90;;;;;;5042272;28;20037;-71
2022/04/19 03:38:34;;;;;;;10.80;2.65;;;6.30;99.90;;;;;;5030504;28;20035;-72
2022/04/19 03:41:00;;;;;;;11.70;2.83;;;6.20;99.90;;;;;;5046525;28;20052;-71
2022/04/19 03:43:26;;;;;;;6.80;2.28;;;6.10;99.90;;;;;;5030129;28;20312;-72
2022/04/19 03:45:52;;;;;;;6.00;2.65;;;6.10;99.90;;;;;;5047606;28;20028;-69
2022/04/19 03:48:17;;;;;;;9.57;3.22;;;6.10;99.90;;;;;;5042650;28;20092;-72
2022/04/19 03:50:44;;;;;;;7.10;2.70;;;6.10;99.90;;;;;;5026753;28;20416;-71
2022/04/19 03:53:10;;;;;;;9.38;2.72;;;6.20;99.90;;;;;;5010458;28;20018;-71
2022/04/19 03:55:35;;;;;;;13.82;2.75;;;6.20;99.90;;;;;;5026541;28;20347;-72
2022/04/19 03:58:03;;;;;;;11.52;3.00;;;6.10;99.90;;;;;;5025974;28;20057;-72
2022/04/19 04:00:28;;;;;;;6.40;2.30;;;6.20;99.90;;;;;;5010043;28;20026;-71
2022/04/19 04:02:55;;;;;;;8.07;2.17;;;6.20;99.90;;;;;;5009574;28;20079;-72
2022/04/19 04:05:23;;;;;;;8.75;2.53;;;6.10;99.90;;;;;;5026667;28;20014;-71
2022/04/19 04:07:49;;;;;;;8.50;2.65;;;6.10;99.90;;;;;;5008431;28;20026;-72
2022/04/19 04:10:14;;;;;;;9.85;3.00;;;6.10;99.90;;;;;;5009703;28;20198;-70
2022/04/19 04:12:40;;;;;;;7.22;2.95;;;6.00;99.90;;;;;;5036311;28;20021;-70
2022/04/19 04:15:06;;;;;;;11.90;2.80;;;6.00;99.90;;;;;;5046334;28;20308;-70
2022/04/19 04:17:32;;;;;;;9.45;2.85;;;6.00;99.90;;;;;;5028886;28;20021;-70
2022/04/19 04:19:59;;;;;;;7.68;3.10;;;6.10;99.90;;;;;;5045485;28;20215;-71
2022/04/19 04:22:25;;;;;;;10.98;3.55;;;6.00;99.90;;;;;;5045970;28;20025;-71
2022/04/19 04:24:51;;;;;;;12.65;3.65;;;6.00;99.90;;;;;;5045730;28;20017;-70
2022/04/19 04:27:17;;;;;;;10.00;2.90;;;6.00;99.90;;;;;;5045894;28;20040;-70
2022/04/19 04:29:43;;;;;;;7.47;2.58;;;6.00;99.90;;;;;;5028889;28;20064;-70
2022/04/19 04:32:09;;;;;;;10.18;3.22;;;6.00;99.90;;;;;;5045733;28;20300;-71
2022/04/19 04:34:34;;;;;;;12.05;2.85;;;6.00;99.90;;;;;;5045540;28;20024;-70
2022/04/19 04:37:00;;;;;;;19.63;3.25;;;6.00;99.90;;;;;;5012479;28;20033;-71
2022/04/19 04:39:25;;;;;;;71.60;7.63;;;5.80;99.90;;;;;;5046642;28;20033;-70
2022/04/19 04:41:51;;;;;;;25.20;4.40;;;5.80;99.90;;;;;;5012286;28;20022;-70
2022/04/19 04:44:17;;;;;;;18.45;4.00;;;5.70;99.90;;;;;;5046716;28;20335;-70
2022/04/19 04:49:35;;;;;;;7.35;2.45;;;5.70;99.90;;;;;;5045068;28;20084;-71
2022/04/19 04:52:07;;;;;;;5.50;2.28;;;5.70;99.90;;;;;;5046265;28;20021;-70
2022/04/19 04:54:34;;;;;;;6.85;2.22;;;5.70;99.90;;;;;;5029534;28;20021;-71
2022/04/19 04:57:00;;;;;;;5.70;2.38;;;5.60;99.90;;;;;;5044701;28;20050;-71
2022/04/19 04:59:26;;;;;;;8.73;2.75;;;5.60;99.90;;;;;;5028498;28;20056;-70
2022/04/19 05:01:52;;;;;;;7.10;2.60;;;5.60;99.90;;;;;;5028258;28;20021;-71
2022/04/19 05:04:18;;;;;;;9.70;2.40;;;5.60;99.90;;;;;;5044993;28;20296;-70
2022/04/19 05:06:44;;;;;;;8.57;3.25;;;5.50;99.90;;;;;;5046382;28;20024;-70
2022/04/19 05:09:10;;;;;;;11.77;2.55;;;5.60;99.90;;;;;;5043493;28;20192;-70
2022/04/19 05:11:36;;;;;;;11.52;3.40;;;5.60;99.90;;;;;;5026623;28;20056;-70
2022/04/19 05:14:02;;;;;;;7.57;2.70;;;5.60;99.90;;;;;;5008472;28;20045;-70
2022/04/19 05:16:28;;;;;;;14.02;2.85;;;5.60;99.90;;;;;;5041532;28;20022;-70
2022/04/19 05:18:53;;;;;;;7.75;2.78;;;5.50;99.90;;;;;;5024350;28;20076;-70
2022/04/19 05:21:19;;;;;;;7.07;2.88;;;5.60;99.90;;;;;;5008365;28;20040;-70
2022/04/19 05:23:45;;;;;;;9.73;3.13;;;5.60;99.90;;;;;;5024782;28;20033;-72
2022/04/19 05:26:10;;;;;;;12.40;3.20;;;5.60;99.90;;;;;;5024581;28;20092;-71
2022/04/19 05:28:36;;;;;;;20.83;3.28;;;5.60;99.90;;;;;;5024724;28;20018;-71
2022/04/19 05:31:01;;;;;;;10.68;3.35;;;5.60;99.90;;;;;;5024839;28;20049;-69
2022/04/19 05:33:27;;;;;;;15.30;3.42;;;5.70;99.90;;;;;;5012525;28;20261;-71
2022/04/19 05:35:54;;;;;;;10.02;3.00;;;5.70;99.90;;;;;;5045568;28;20017;-70
2022/04/19 05:38:20;;;;;;;10.40;2.90;;;5.60;99.90;;;;;;5011792;28;20029;-70
2022/04/19 05:40:45;;;;;;;16.45;3.63;;;5.70;99.90;;;;;;5011230;28;20101;-70
2022/04/19 05:43:11;;;;;;;15.43;3.58;;;5.70;99.90;;;;;;5027569;28;20257;-70
2022/04/19 05:45:39;;;;;;;16.40;4.25;;;5.80;99.90;;;;;;5044314;28;20048;-69
2022/04/19 05:48:05;;;;;;;23.48;4.20;;;5.80;99.90;;;;;;5043577;28;20041;-70
2022/04/19 05:50:31;;;;;;;29.13;5.22;;;5.90;99.90;;;;;;5028151;28;20025;-71
2022/04/19 05:52:57;;;;;;;27.88;5.22;;;6.00;99.90;;;;;;5011200;28;20032;-71
2022/04/19 05:55:23;;;;;;;17.35;3.92;;;6.10;99.90;;;;;;5027487;28;20025;-71
2022/04/19 05:57:49;;;;;;;38.00;5.93;;;6.20;99.90;;;;;;5024175;28;20240;-71
2022/04/19 06:00:15;;;;;;;35.88;6.50;;;6.30;99.90;;;;;;5023631;28;20146;-71
2022/04/19 06:05:27;;;;;;;35.33;6.50;;;6.50;99.90;;;;;;5010524;28;20020;-71
2022/04/19 06:07:54;;;;;;;75.15;13.98;;;6.70;99.90;;;;;;5007502;28;20018;-72
2022/04/19 06:10:22;;;;;;;51.53;11.35;;;6.70;99.90;;;;;;5006711;28;20018;-72
2022/04/19 06:12:47;;;;;;;36.60;7.97;;;6.80;99.90;;;;;;5023683;28;20049;-71
2022/04/19 06:15:13;;;;;;;39.22;9.05;;;6.90;99.90;;;;;;5023894;28;20022;-71
2022/04/19 06:17:40;;;;;;;44.22;9.98;;;7.10;99.90;;;;;;5007504;28;20026;-71
2022/04/19 06:20:07;;;;;;;35.50;8.85;;;7.20;99.90;;;;;;5024560;28;20022;-71
2022/04/19 06:22:33;;;;;;;44.80;9.68;;;7.40;99.90;;;;;;5007291;28;20021;-71
2022/04/19 06:25:01;;;;;;;21.17;6.50;;;7.50;99.90;;;;;;5023431;28;20030;-73
2022/04/19 06:27:27;;;;;;;33.80;6.57;;;7.60;99.90;;;;;;5023685;28;20060;-71
2022/04/19 06:29:52;;;;;;;35.58;7.40;;;7.80;99.90;;;;;;5023049;28;20017;-71
2022/04/19 06:32:19;;;;;;;20.88;6.18;;;8.00;99.90;;;;;;5024622;28;20105;-71
2022/04/19 06:34:45;;;;;;;28.58;6.07;;;8.10;99.90;;;;;;5022153;28;20351;-71
2022/04/19 06:37:11;;;;;;;19.77;4.80;;;8.30;99.90;;;;;;5043288;28;20029;-71
2022/04/19 06:39:37;;;;;;;15.00;4.18;;;8.40;99.90;;;;;;5043139;28;20040;-72
2022/04/19 06:42:03;;;;;;;12.48;4.22;;;8.50;99.90;;;;;;5042837;28;20232;-72
2022/04/19 06:44:28;;;;;;;17.05;4.00;;;8.60;99.90;;;;;;5026596;28;20100;-72
2022/04/19 06:46:54;;;;;;;14.20;4.25;;;8.50;99.90;;;;;;5042790;28;20308;-72
2022/04/19 06:49:20;;;;;;;21.73;4.50;;;8.60;99.90;;;;;;5026019;28;20029;-72
2022/04/19 06:51:45;;;;;;;21.25;4.63;;;8.50;99.90;;;;;;5042996;28;20079;-72
2022/04/19 06:54:12;;;;;;;22.00;4.00;;;8.60;99.90;;;;;;5042908;28;20307;-73
2022/04/19 06:56:38;;;;;;;19.70;4.90;;;8.70;99.90;;;;;;5026371;28;20112;-73
2022/04/19 06:59:04;;;;;;;13.40;4.40;;;8.60;99.90;;;;;;5042623;28;20037;-74
2022/04/19 07:01:30;;;;;;;19.45;4.72;;;8.70;99.90;;;;;;5043830;28;20036;-72
2022/04/19 07:03:56;;;;;;;18.20;4.85;;;8.70;99.90;;;;;;5058748;28;20063;-72
2022/04/19 07:06:22;;;;;;;16.27;4.43;;;8.70;99.90;;;;;;5046019;28;20016;-73
2022/04/19 07:08:48;;;;;;;12.55;4.72;;;8.70;99.90;;;;;;5029694;28;20020;-73
2022/04/19 07:11:16;;;;;;;17.73;4.47;;;8.70;99.90;;;;;;5044580;28;20067;-72
2022/04/19 07:13:43;;;;;;;15.85;4.82;;;8.80;99.90;;;;;;5046209;28;20064;-74
2022/04/19 07:16:09;;;;;;;13.75;4.78;;;8.70;99.90;;;;;;5062423;28;20088;-72
2022/04/19 07:18:35;;;;;;;15.15;5.03;;;8.80;99.90;;;;;;5062188;28;20033;-73
2022/04/19 07:26:40;;;;;;;9.38;3.63;;;8.90;99.90;;;;;;5062887;28;20032;-71
2022/04/19 07:29:10;;;;;;;9.82;3.65;;;9.10;99.90;;;;;;5031462;28;20251;-71
2022/04/19 07:31:37;;;;;;;9.85;3.70;;;9.10;99.90;;;;;;5063265;28;20407;-72
2022/04/19 07:34:03;;;;;;;7.65;3.03;;;9.20;99.90;;;;;;5032967;28;20022;-73
2022/04/19 07:36:29;;;;;;;4.88;2.63;;;9.30;99.90;;;;;;5022688;28;20351;-73
2022/04/19 07:38:55;;;;;;;6.93;3.20;;;9.30;99.50;;;;;;5022613;28;20088;-71
2022/04/19 07:41:21;;;;;;;15.00;3.33;;;9.40;99.40;;;;;;5006013;28;20022;-75
2022/04/19 07:43:47;;;;;;;10.77;3.13;;;9.40;99.20;;;;;;5023482;28;20029;-72
2022/04/19 07:46:15;;;;;;;7.20;2.72;;;9.50;99.10;;;;;;5009061;28;20025;-72
2022/04/19 07:48:46;;;;;;;8.40;2.33;;;9.60;99.10;;;;;;5041818;28;20017;-72
2022/04/19 07:51:14;;;;;;;4.55;2.20;;;9.70;98.90;;;;;;5042331;28;20037;-71
2022/04/19 07:53:40;;;;;;;6.43;2.75;;;9.70;98.40;;;;;;5025578;28;20026;-71
2022/04/19 07:56:06;;;;;;;6.32;1.73;;;9.70;98.60;;;;;;5041672;28;20091;-71
2022/04/19 07:58:31;;;;;;;6.50;1.30;;;9.80;98.10;;;;;;5026035;28;20029;-71
2022/04/19 08:00:57;;;;;;;4.93;1.45;;;9.80;97.90;;;;;;5025202;28;20334;-72
2022/04/19 08:03:23;;;;;;;7.43;1.02;;;9.80;97.50;;;;;;5042301;28;20013;-71
2022/04/19 08:05:50;;;;;;;8.02;1.35;;;9.90;97.30;;;;;;5042071;28;20030;-72
2022/04/19 08:08:17;;;;;;;3.40;1.08;;;9.90;97.10;;;;;;5026115;28;20029;-72
2022/04/19 08:10:44;;;;;;;7.45;1.52;;;9.80;97.00;;;;;;5008075;28;20017;-72
2022/04/19 08:13:10;;;;;;;4.68;1.20;;;9.80;97.20;;;;;;5043374;28;20021;-71
2022/04/19 08:15:36;;;;;;;4.13;1.00;;;9.80;97.10;;;;;;5025895;28;20104;-71
2022/04/19 08:18:01;;;;;;;6.90;1.83;;;9.80;97.20;;;;;;5041931;28;20026;-72
2022/04/19 08:20:27;;;;;;;4.18;1.15;;;9.80;97.30;;;;;;5025398;28;20026;-72
2022/04/19 08:22:53;;;;;;;6.13;1.05;;;9.80;97.10;;;;;;5043368;28;20044;-71
2022/04/19 08:25:20;;;;;;;12.70;1.60;;;9.80;96.90;;;;;;5045800;28;20080;-71
2022/04/19 08:27:46;;;;;;;4.82;1.40;;;9.80;97.00;;;;;;5029109;28;20021;-71
2022/04/19 08:30:13;;;;;;;6.55;1.50;;;10.00;96.50;;;;;;5047061;28;20021;-71
2022/04/19 08:32:39;;;;;;;5.28;1.58;;;10.00;96.60;;;;;;5045031;28;20029;-72
2022/04/19 08:35:05;;;;;;;2.90;1.42;;;9.90;96.50;;;;;;5028753;28;20167;-71
2022/04/19 08:37:32;;;;;;;4.90;1.42;;;9.90;96.90;;;;;;5029515;28;20046;-73
2022/04/19 08:39:58;;;;;;;4.50;1.40;;;10.00;96.60;;;;;;5045839;28;20017;-71
2022/04/19 08:42:25;;;;;;;7.13;1.40;;;10.10;96.50;;;;;;5045262;28;20021;-71
2022/04/19 08:44:50;;;;;;;6.55;1.40;;;10.00;96.50;;;;;;5045452;28;20040;-72
2022/04/19 08:47:18;;;;;;;6.55;1.13;;;10.00;96.60;;;;;;5029050;28;20025;-72
2022/04/19 08:49:45;;;;;;;4.63;1.42;;;10.10;96.60;;;;;;5045007;28;20063;-72
2022/04/19 08:52:10;;;;;;;7.00;1.48;;;10.00;96.50;;;;;;5045616;28;20022;-72
2022/04/19 08:57:29;;;;;;;3.33;1.15;;;10.10;96.40;;;;;;5045402;28;20041;-72
2022/04/19 08:59:55;;;;;;;3.53;1.17;;;10.00;96.30;;;;;;5045717;28;20033;-69
2022/04/19 09:02:23;;;;;;;4.03;1.30;;;10.10;96.40;;;;;;5044959;28;20059;-72
2022/04/19 09:04:50;;;;;;;8.60;1.40;;;10.10;96.20;;;;;;5046607;28;20017;-71
2022/04/19 09:07:17;;;;;;;4.43;1.30;;;10.20;96.10;;;;;;5029537;28;20075;-71
2022/04/19 09:09:43;;;;;;;4.05;1.75;;;10.20;96.10;;;;;;5045883;28;20049;-71
2022/04/19 09:12:11;;;;;;;3.38;1.00;;;10.30;95.80;;;;;;5021614;28;20017;-73
2022/04/19 09:14:55;;;;;;;3.33;1.10;;;10.40;95.70;;;;;;5025727;28;20220;-72
2022/04/19 09:17:31;;;;;;;4.78;1.38;;;10.40;95.90;;;;;;5008518;28;20037;-73
2022/04/19 09:20:19;;;;;;;4.97;1.30;;;10.50;95.60;;;;;;5024725;28;20026;-72
2022/04/19 09:22:48;;;;;;;5.43;0.98;;;10.60;95.20;;;;;;5024696;28;20057;-72
2022/04/19 09:25:19;;;;;;;5.72;1.30;;;10.70;95.10;;;;;;5024894;28;20303;-73
2022/04/19 09:27:46;;;;;;;7.93;1.38;;;10.70;94.70;;;;;;5024791;28;20104;-72
2022/04/19 09:30:32;;;;;;;2.95;0.80;;;10.80;94.80;;;;;;5024596;28;20022;-72
2022/04/19 09:33:20;;;;;;;3.85;1.00;;;10.90;94.00;;;;;;5024654;28;20025;-70
2022/04/19 09:35:50;;;;;;;3.83;1.13;;;11.00;94.00;;;;;;5043154;28;20288;-71
2022/04/19 09:38:17;;;;;;;2.45;0.73;;;11.10;93.60;;;;;;5043976;28;20030;-72
2022/04/19 09:40:47;;;;;;;4.50;1.05;;;11.10;93.00;;;;;;5011457;28;20368;-72
2022/04/19 09:43:16;;;;;;;5.18;1.00;;;11.20;93.00;;;;;;5027444;28;20251;-71
2022/04/19 09:46:04;;;;;;;5.88;1.02;;;11.30;93.10;;;;;;5044268;28;20044;-73
2022/04/19 09:48:33;;;;;;;2.15;0.70;;;11.40;92.80;;;;;;5030389;28;20025;-72
2022/04/19 09:51:02;;;;;;;5.07;0.90;;;11.50;92.30;;;;;;5028069;28;20025;-72
2022/04/19 09:53:48;;;;;;;2.40;0.90;;;11.50;91.80;;;;;;5044122;28;20036;-72
2022/04/19 09:56:16;;;;;;;2.80;0.75;;;11.60;91.90;;;;;;5044992;28;20057;-73
2022/04/19 09:58:44;;;;;;;6.38;0.93;;;11.80;91.50;;;;;;5010874;28;20037;-72
2022/04/19 10:08:10;;;;;;;3.70;1.00;;;11.90;91.50;;;;;;5027340;28;20025;-71
2022/04/19 10:09:35;;;;;;;4.68;0.90;;;12.30;90.50;;;;;;5043770;28;20052;-71
2022/04/19 10:12:03;;;;;;;3.20;1.15;;;12.30;90.50;;;;;;5025050;28;20022;-71
2022/04/19 10:14:30;;;;;;;2.20;0.70;;;12.30;90.10;;;;;;5023373;28;20042;-72
2022/04/19 10:16:57;;;;;;;7.13;0.95;;;12.40;88.70;;;;;;5007188;28;20025;-71
2022/04/19 10:19:23;;;;;;;4.07;1.02;;;12.40;89.40;;;;;;5023364;28;20041;-72
2022/04/19 10:21:51;;;;;;;1.40;0.50;;;12.30;90.20;;;;;;5024710;28;20026;-72
2022/04/19 10:24:17;;;;;;;5.80;1.08;;;12.30;89.10;;;;;;5007254;28;20022;-70
2022/04/19 10:26:46;;;;;;;2.47;0.80;;;12.40;89.80;;;;;;5039492;28;20022;-71
2022/04/19 10:29:22;;;;;;;4.55;0.90;;;12.60;89.80;;;;;;5007395;28;20025;-70
2022/04/19 10:32:08;;;;;;;1.70;0.70;;;12.70;89.50;;;;;;5023199;28;20017;-71
2022/04/19 10:34:36;;;;;;;2.00;0.63;;;12.80;88.60;;;;;;5017026;28;20045;-71
2022/04/19 10:37:23;;;;;;;6.13;0.73;;;12.90;88.20;;;;;;5023049;28;20025;-71
2022/04/19 10:39:50;;;;;;;3.17;0.70;;;13.00;87.90;;;;;;5009399;28;20038;-71
2022/04/19 10:42:40;;;;;;;3.13;0.70;;;13.10;87.10;;;;;;5023116;28;20030;-71
2022/04/19 10:45:20;;;;;;;3.58;0.70;;;13.50;85.90;;;;;;5006944;28;20305;-71
2022/04/19 10:48:07;;;;;;;3.08;0.88;;;13.40;86.10;;;;;;5022236;28;20052;-72
2022/04/19 10:50:39;;;;;;;2.70;0.63;;;13.60;85.20;;;;;;5043014;28;20059;-73
2022/04/19 10:53:06;;;;;;;2.60;0.95;;;13.70;85.30;;;;;;5042557;28;20366;-73
2022/04/19 10:55:34;;;;;;;2.85;0.85;;;13.90;84.50;;;;;;5026768;28;20022;-75
2022/04/19 10:58:16;;;;;;;2.70;0.63;;;14.10;84.60;;;;;;5042853;28;20041;-71
2022/04/19 11:00:47;;;;;;;2.92;0.80;;;14.00;83.20;;;;;;5043176;28;20148;-71
2022/04/19 11:03:35;;;;;;;5.85;0.73;;;14.00;83.40;;;;;;5027152;28;20312;-71
2022/04/19 11:06:03;;;;;;;3.38;0.90;;;14.10;83.20;;;;;;5029711;28;20194;-71
2022/04/19 11:08:32;;;;;;;4.93;0.63;;;14.30;82.60;;;;;;5043034;28;20100;-71
2022/04/19 11:11:22;;;;;;;3.15;1.10;;;14.40;81.90;;;;;;5026849;28;20014;-72
2022/04/19 11:14:28;;;;;;;17.80;1.63;;;14.60;83.00;;;;;;5037616;28;20217;-73
2022/04/19 11:17:18;;;;;;;3.78;0.90;;;15.10;81.10;;;;;;5012945;28;20026;-72
2022/04/19 11:19:53;;;;;;;6.05;1.20;;;15.20;80.10;;;;;;5009894;28;20105;-72
2022/04/19 11:22:43;;;;;;;8.18;1.20;;;14.90;80.40;;;;;;5007540;28;20021;-72
2022/04/19 11:25:10;;;;;;;4.95;1.10;;;15.10;80.80;;;;;;5010771;28;20029;-72
2022/04/19 11:28:15;;;;;;;5.13;0.90;;;15.10;80.90;;;;;;5007248;28;20308;-72
2022/04/19 11:30:45;;;;;;;4.75;1.00;;;15.00;80.90;;;;;;4998722;28;20018;-72
2022/04/19 11:33:21;;;;;;;3.53;1.02;;;14.90;81.40;;;;;;5009164;28;20205;-71
2022/04/19 11:36:00;;;;;;;3.15;1.33;;;14.90;81.80;;;;;;5026186;28;20023;-72
2022/04/19 11:38:28;;;;;;;3.53;1.35;;;14.70;82.30;;;;;;5026044;28;20029;-72
2022/04/19 11:46:45;;;;;;;4.30;0.98;;;14.90;82.00;;;;;;5028898;28;20029;-72
2022/04/19 11:49:25;;;;;;;4.53;1.17;;;15.00;81.60;;;;;;5042549;28;20087;-72
2022/04/19 11:51:55;;;;;;;5.05;1.05;;;15.00;81.60;;;;;;5026167;28;20316;-71
2022/04/19 11:54:22;;;;;;;3.67;0.90;;;14.90;81.30;;;;;;5025545;28;20021;-72
2022/04/19 11:56:52;;;;;;;3.05;0.85;;;14.70;81.70;;;;;;5025781;28;20056;-71
2022/04/19 11:59:18;;;;;;;7.43;1.20;;;14.80;79.30;;;;;;5042412;28;20049;-71
2022/04/19 12:01:51;;;;;;;4.63;0.98;;;14.80;79.90;;;;;;5028031;28;20049;-71
2022/04/19 12:04:17;;;;;;;3.45;0.98;;;15.10;79.10;;;;;;5026431;28;20021;-73
2022/04/19 12:07:02;;;;;;;1.83;1.00;;;15.40;78.80;;;;;;5026539;28;20305;-72
2022/04/19 12:09:30;;;;;;;4.65;1.00;;;15.70;78.80;;;;;;5010255;28;20249;-71
2022/04/19 12:11:56;;;;;;;3.78;1.33;;;15.70;78.70;;;;;;5027333;28;20097;-73
2022/04/19 12:14:34;;;;;;;5.63;1.70;;;15.40;78.90;;;;;;5008874;28;20018;-73
2022/04/19 12:17:03;;;;;;;6.97;2.17;;;15.20;80.00;;;;;;5027500;28;20026;-73
2022/04/19 12:19:40;;;;;;;4.50;1.70;;;15.20;81.20;;;;;;5009434;28;20038;-72
2022/04/19 12:22:23;;;;;;;6.10;1.85;;;15.20;80.60;;;;;;5026157;28;20321;-72
2022/04/19 12:24:53;;;;;;;6.82;1.70;;;14.80;81.40;;;;;;5009694;28;20022;-72
2022/04/19 12:27:28;;;;;;;5.27;1.27;;;14.90;81.80;;;;;;5026310;28;20024;-72
2022/04/19 12:30:00;;;;;;;3.33;1.40;;;14.90;80.50;;;;;;5009844;28;20017;-72
2022/04/19 12:32:26;;;;;;;4.10;2.00;;;15.00;80.50;;;;;;5025888;28;20212;-73
2022/04/19 12:35:07;;;;;;;4.53;1.60;;;15.00;79.40;;;;;;5021287;28;20069;-74
2022/04/19 12:37:33;;;;;;;5.20;1.80;;;15.30;79.50;;;;;;5025264;28;20186;-73
2022/04/19 12:40:00;;;;;;;3.25;1.40;;;15.40;79.90;;;;;;5025432;28;20072;-72
2022/04/19 12:42:26;;;;;;;5.05;1.70;;;15.40;80.30;;;;;;5025805;28;20032;-73
2022/04/19 12:45:12;;;;;;;4.47;1.38;;;15.70;79.00;;;;;;5025570;28;20033;-72
2022/04/19 12:47:46;;;;;;;8.50;1.88;;;15.80;78.30;;;;;;5039951;28;20044;-72
2022/04/19 12:50:16;;;;;;;5.97;2.15;;;15.70;78.80;;;;;;5044759;28;20301;-73
2022/04/19 12:52:42;;;;;;;2.08;1.50;;;15.80;79.30;;;;;;5029253;28;20025;-73
2022/04/19 12:55:09;;;;;;;4.85;2.00;;;16.00;77.00;;;;;;5045840;28;20063;-71
2022/04/19 12:57:38;;;;;;;5.40;1.73;;;15.90;76.80;;;;;;5039283;28;20046;-72
2022/04/19 13:00:05;;;;;;;5.93;1.98;;;15.50;77.70;;;;;;5025080;28;20029;-72
2022/04/19 13:02:31;;;;;;;5.65;2.28;;;15.40;78.10;;;;;;5009554;28;20026;-71
2022/04/19 13:04:57;;;;;;;12.68;2.33;;;15.10;79.30;;;;;;5026712;28;20028;-72
2022/04/19 13:13:04;;;;;;;3.85;1.85;;;15.20;79.10;;;;;;5019009;28;20208;-72
2022/04/19 13:15:32;;;;;;;5.97;1.40;;;15.20;78.00;;;;;;5022714;28;20041;-71
2022/04/19 13:17:58;;;;;;;4.68;1.20;;;15.40;77.50;;;;;;5025175;28;20048;-72
2022/04/19 13:20:24;;;;;;;6.18;1.55;;;15.60;76.50;;;;;;5024415;28;20104;-72
2022/04/19 13:22:50;;;;;;;3.70;1.45;;;15.70;76.60;;;;;;5024919;28;20053;-72
2022/04/19 13:25:16;;;;;;;4.97;1.15;;;15.70;78.40;;;;;;5025079;28;20064;-72
2022/04/19 13:27:42;;;;;;;6.20;2.10;;;15.70;77.10;;;;;;5026141;28;20053;-72
2022/04/19 13:30:10;;;;;;;7.20;1.80;;;15.80;77.70;;;;;;5007822;28;20022;-73
2022/04/19 13:32:35;;;;;;;4.68;1.73;;;15.80;78.40;;;;;;5024756;28;20040;-72
2022/04/19 13:35:02;;;;;;;8.23;1.90;;;15.70;78.80;;;;;;5038621;28;20304;-72
2022/04/19 13:40:13;;;;;;;3.70;1.90;;;15.90;77.50;;;;;;5010977;28;20317;-73